Glasgow, Missouri
Current Conditions -  °F | °C
As of 6:55 AM on Wednesday 22 Oct 2014 (Local Time) from KVER Reporting Station
Moderate Fog Moderate Fog  
Wind Chill:   Ceiling: 200
Heat Index:   Visibility: 0.25mi
Dew Point:   Wind: 6mph
Humidity: 84%   Direction: 110°ESE
Pressure: 30.25"   Gusts: NA
Location:  39.23°N, 92.85°W
Report Text: KVER 221155Z AUTO 11005KT 1/4SM FG VV002 08/05 A3025 RMK AO2 T00750050 10241 20038
Loading
Personal Weather Stations






























Interactive Weather Map
Tropical Storm Tracking
New forecast layout! Learn more

10-Day Weather Forecast

Advertisements
Track Severe Weather on mobile